Weather at Spieden Island Airstrip [CLOSED]

Public forecast

Using degrees Fahrenheit for public forecast. Weather courtesy of forecast.io.

Closest aviation weather report (METAR) to Spieden Island Airstrip

Closest report is Friday Harbor Airport, 8.6 nm (15.9 km) SSE.

2024/05/26 20:53 (retrieved 16 minutes ago)

KFHR 262053Z AUTO 14007KT 10SM OVC015 13/09 A3012 RMK AO2 RAE47 SLP199 P0001 60001 T01330094

Closest aviation forecast (TAF) to Spieden Island Airstrip

Closest forecast is Victoria International Airport, 11.2 nm (20.8 km) W.

2024/05/26 18:42 (retrieved 2 hours ago)

TAF CYYJ 261740Z 2618/2718 14010KT P6SM SCT015 OVC040 TEMPO 2618/2718 5SM -SHRA BR BKN015 OVC040 BECMG 2702/2704 VRB03KT RMK NXT FCST BY 270000Z